Decoded Metar for LFBD (BORDEAUX in FRANCE) (IATA:BOD) | Meteo·Mobile Aviation Weather
aviador You're here:

LFBD Decoded Metar

BORDEAUX in FRANCE
Report Time2019-07-16 09:30:00
UTC Time2019-07-16 10:02:04
Flight Rules vfr VFR
Wind020° at 05 kt
W.Decomp.*RWY 05: 4.4 kt HW 2.4 kt LCW
RWY 11: 0.1 kt HW 5 kt LCW
Visibility9999 m
Phenomena:N/A
Clouds:N/A
Expected CloudBase > 6,400 ft AGL from Temp-Dew spread
CeilingNone
Temp27°C (ISA +12)
Dew Point11°C (37% RH)
Heat Index26.7°C
AAT25.5°C
QNH1017 hPa
Density Alt1,673 ft
Elevation200 ft
Report Wrong Elevation
Raw Report
LFBD 160930Z AUTO 02005KT 300V090 CAVOK 27/11 Q1017 NOSIG=

Extra information for LFBD:More info

Metar Taf Metar & Taf Last 4 Metars F.Rules Stats Wind Profile Meteogram Temp Stats Airport Information Weather charts Add Link Nearby VenuesMetar ALERT Operation Metar Decoded Social comments